Time;durP1;ratioP1;P1;durP2;ratioP2;P2;SDS_P1;SDS_P2;PMS_P1;PMS_P2;Temp;Humidity;BMP_temperature;BMP_pressure;BME280_temperature;BME280_humidity;BME280_pressure;Samples;Min_cycle;Max_cycle;Signal;HPM_P1;HPM_P2
2022/11/28 00:01:58;;;;;;;60.47;33.95;;;;;;;;;;5129782;28;20012;-77
2022/11/28 00:04:44;;;;;;;57.63;33.92;;;;;;;;;;5119685;28;20439;-77
2022/11/28 00:07:29;;;;;;;58.80;33.67;;;;;;;;;;5118853;28;20020;-77
2022/11/28 00:10:15;;;;;;;61.75;33.65;;;;;;;;;;5108216;28;20118;-76
2022/11/28 00:13:00;;;;;;;59.03;33.70;;;;;;;;;;5118493;28;20096;-76
2022/11/28 00:15:53;;;;;;;58.35;33.03;;;;;;;;;;5103421;28;20407;-76
2022/11/28 00:18:39;;;;;;;56.67;32.22;;;;;;;;;;5117329;28;20023;-77
2022/11/28 00:21:24;;;;;;;59.13;32.47;;;;;;;;;;5094881;28;20084;-76
2022/11/28 00:24:10;;;;;;;55.88;32.85;;;;;;;;;;5116541;28;20016;-77
2022/11/28 00:26:56;;;;;;;59.42;34.88;;;;;;;;;;5115915;28;20020;-77
2022/11/28 00:29:41;;;;;;;59.53;33.22;;;;;;;;;;5116253;28;20055;-76
2022/11/28 00:32:27;;;;;;;58.25;33.60;;;;;;;;;;5102524;28;20015;-77
2022/11/28 00:35:12;;;;;;;60.53;33.50;;;;;;;;;;5116491;28;20094;-75
2022/11/28 00:37:58;;;;;;;59.67;35.08;;;;;;;;;;5123926;28;20063;-76
2022/11/28 00:40:44;;;;;;;63.35;34.33;;;;;;;;;;5102972;28;20019;-76
2022/11/28 00:43:29;;;;;;;59.55;34.13;;;;;;;;;;5116561;28;20119;-76
2022/11/28 00:46:15;;;;;;;64.78;36.97;;;;;;;;;;5117165;28;20020;-76
2022/11/28 00:49:01;;;;;;;60.67;34.92;;;;;;;;;;5116892;28;20081;-77
2022/11/28 00:51:47;;;;;;;59.33;33.85;;;;;;;;;;5102740;28;20070;-76
2022/11/28 00:54:32;;;;;;;59.65;33.38;;;;;;;;;;5101105;28;20317;-77
2022/11/28 00:57:18;;;;;;;58.50;33.00;;;;;;;;;;5101789;28;20038;-77
2022/11/28 01:00:05;;;;;;;58.20;33.60;;;;;;;;;;5115987;28;20095;-76
2022/11/28 01:02:51;;;;;;;59.55;34.10;;;;;;;;;;5115850;28;20055;-76
2022/11/28 01:05:40;;;;;;;59.35;34.08;;;;;;;;;;5101786;28;20101;-77
2022/11/28 01:08:26;;;;;;;59.10;33.33;;;;;;;;;;5115973;28;20020;-78
2022/11/28 01:11:12;;;;;;;59.17;33.65;;;;;;;;;;5102131;28;20033;-76
2022/11/28 01:13:59;;;;;;;60.78;34.33;;;;;;;;;;5116503;28;20055;-77
2022/11/28 01:16:44;;;;;;;59.03;34.42;;;;;;;;;;5115482;28;20020;-77
2022/11/28 01:19:30;;;;;;;60.75;34.65;;;;;;;;;;5115447;28;20031;-77
2022/11/28 01:22:15;;;;;;;57.88;33.72;;;;;;;;;;5115534;28;20088;-77
2022/11/28 01:25:01;;;;;;;60.13;33.72;;;;;;;;;;5115378;28;20034;-77
2022/11/28 01:27:47;;;;;;;57.00;32.97;;;;;;;;;;5115371;28;20011;-77
2022/11/28 01:30:33;;;;;;;58.85;32.17;;;;;;;;;;5114775;28;20118;-77
2022/11/28 01:33:18;;;;;;;57.92;32.50;;;;;;;;;;5115562;28;20035;-77
2022/11/28 01:36:04;;;;;;;52.72;31.33;;;;;;;;;;5114666;28;20102;-76
2022/11/28 01:38:50;;;;;;;54.40;31.63;;;;;;;;;;5115035;28;20117;-77
2022/11/28 01:41:36;;;;;;;54.90;32.00;;;;;;;;;;5100653;28;20030;-77
2022/11/28 01:44:21;;;;;;;50.70;29.92;;;;;;;;;;5114302;28;20424;-76
2022/11/28 01:47:07;;;;;;;53.90;31.33;;;;;;;;;;5114882;28;20016;-77
2022/11/28 01:49:53;;;;;;;52.80;30.23;;;;;;;;;;5114647;28;20018;-77
2022/11/28 01:52:41;;;;;;;49.40;29.40;;;;;;;;;;5115612;28;20077;-77
2022/11/28 01:55:29;;;;;;;49.35;28.75;;;;;;;;;;5115324;28;20043;-77
2022/11/28 01:58:15;;;;;;;49.85;28.85;;;;;;;;;;5100923;28;20020;-76
2022/11/28 02:01:01;;;;;;;50.83;29.35;;;;;;;;;;5101638;28;20080;-76
2022/11/28 02:03:48;;;;;;;47.92;28.23;;;;;;;;;;5114424;28;20077;-77
2022/11/28 02:06:34;;;;;;;48.47;27.92;;;;;;;;;;5114261;28;20047;-76
2022/11/28 02:09:19;;;;;;;48.50;27.77;;;;;;;;;;5114519;28;20356;-76
2022/11/28 02:12:10;;;;;;;43.88;27.08;;;;;;;;;;5114494;28;20034;-76
2022/11/28 02:15:03;;;;;;;46.65;26.08;;;;;;;;;;5100729;28;20038;-77
2022/11/28 02:17:51;;;;;;;38.88;24.23;;;;;;;;;;5114360;28;20047;-76
2022/11/28 02:20:43;;;;;;;45.22;26.83;;;;;;;;;;5114029;28;20015;-76
2022/11/28 02:23:43;;;;;;;39.92;24.35;;;;;;;;;;5114618;28;20032;-77
2022/11/28 02:26:47;;;;;;;40.45;23.35;;;;;;;;;;5115056;28;20020;-77
2022/11/28 02:29:33;;;;;;;40.47;22.55;;;;;;;;;;5114157;28;20030;-77
2022/11/28 02:32:24;;;;;;;40.13;22.98;;;;;;;;;;5114678;28;20015;-77
2022/11/28 02:35:20;;;;;;;46.85;25.85;;;;;;;;;;5114934;28;20043;-77
2022/11/28 02:38:24;;;;;;;40.10;23.20;;;;;;;;;;5114360;28;20437;-77
2022/11/28 02:41:30;;;;;;;39.08;22.77;;;;;;;;;;5114386;28;20019;-77
2022/11/28 02:44:23;;;;;;;41.50;24.65;;;;;;;;;;5115232;28;20102;-77
2022/11/28 02:47:16;;;;;;;38.15;22.38;;;;;;;;;;5113970;28;20022;-77
2022/11/28 02:50:01;;;;;;;37.75;21.60;;;;;;;;;;5114113;28;20058;-77
2022/11/28 02:52:49;;;;;;;34.25;20.75;;;;;;;;;;5099960;28;20028;-76
2022/11/28 02:55:39;;;;;;;33.63;20.55;;;;;;;;;;5099434;28;20023;-77
2022/11/28 02:58:25;;;;;;;33.35;19.58;;;;;;;;;;5114286;28;20038;-78
2022/11/28 03:01:23;;;;;;;33.28;19.83;;;;;;;;;;5100671;28;20436;-77
2022/11/28 03:04:18;;;;;;;33.72;18.50;;;;;;;;;;5113929;28;20031;-76
2022/11/28 03:07:22;;;;;;;30.85;18.20;;;;;;;;;;5099590;28;20144;-76
2022/11/28 03:10:13;;;;;;;28.42;16.80;;;;;;;;;;5114325;28;20443;-77
2022/11/28 03:13:17;;;;;;;30.58;17.98;;;;;;;;;;5114297;28;20428;-77
2022/11/28 03:16:03;;;;;;;31.42;17.15;;;;;;;;;;5114427;28;20202;-78
2022/11/28 03:19:00;;;;;;;29.05;16.67;;;;;;;;;;5102313;28;20035;-77
2022/11/28 03:21:56;;;;;;;26.42;16.00;;;;;;;;;;5117914;28;20015;-76
2022/11/28 03:24:42;;;;;;;26.70;16.65;;;;;;;;;;5117931;28;20103;-77
2022/11/28 03:27:27;;;;;;;29.95;17.13;;;;;;;;;;5104217;28;20061;-77
2022/11/28 03:30:15;;;;;;;29.77;16.85;;;;;;;;;;5117622;28;20106;-76
2022/11/28 03:33:01;;;;;;;28.77;16.75;;;;;;;;;;5118117;28;20046;-77
2022/11/28 03:35:59;;;;;;;28.02;16.58;;;;;;;;;;5117708;28;20015;-76
2022/11/28 03:38:48;;;;;;;27.25;16.02;;;;;;;;;;5120060;28;20012;-76
2022/11/28 03:41:43;;;;;;;31.92;17.48;;;;;;;;;;5117417;28;20020;-77
2022/11/28 03:44:36;;;;;;;26.27;15.90;;;;;;;;;;5118014;28;20015;-76
2022/11/28 03:47:25;;;;;;;31.23;17.92;;;;;;;;;;5117780;28;20031;-76
2022/11/28 03:50:18;;;;;;;29.75;17.63;;;;;;;;;;5113589;28;20048;-75
2022/11/28 03:53:06;;;;;;;26.42;15.85;;;;;;;;;;5125566;28;20096;-76
2022/11/28 03:55:55;;;;;;;28.48;16.98;;;;;;;;;;5105137;28;20076;-77
2022/11/28 03:58:51;;;;;;;28.42;16.92;;;;;;;;;;5123576;28;20021;-75
2022/11/28 04:01:46;;;;;;;30.83;17.15;;;;;;;;;;5125454;28;20111;-76
2022/11/28 04:04:38;;;;;;;27.83;17.10;;;;;;;;;;5104078;28;20375;-76
2022/11/28 04:07:33;;;;;;;30.25;18.05;;;;;;;;;;5116498;28;20416;-76
2022/11/28 04:10:27;;;;;;;32.08;17.02;;;;;;;;;;5103635;28;20019;-76
2022/11/28 04:13:13;;;;;;;27.02;15.88;;;;;;;;;;5116832;28;20027;-77
2022/11/28 04:16:06;;;;;;;29.85;17.00;;;;;;;;;;5103397;28;20087;-77
2022/11/28 04:18:58;;;;;;;27.63;16.55;;;;;;;;;;5101803;28;20011;-77
2022/11/28 04:21:53;;;;;;;28.80;16.60;;;;;;;;;;5103035;28;20043;-77
2022/11/28 04:24:41;;;;;;;26.73;16.30;;;;;;;;;;5103763;28;20055;-76
2022/11/28 04:27:29;;;;;;;25.33;16.17;;;;;;;;;;5102821;28;20023;-76
2022/11/28 04:30:14;;;;;;;27.95;15.38;;;;;;;;;;5103174;28;20076;-76
2022/11/28 04:33:03;;;;;;;25.25;14.98;;;;;;;;;;5118201;28;20016;-76
2022/11/28 04:35:50;;;;;;;25.90;15.85;;;;;;;;;;5119035;28;20431;-76
2022/11/28 04:38:37;;;;;;;25.27;15.40;;;;;;;;;;5103127;28;20097;-77
2022/11/28 04:41:30;;;;;;;24.50;15.27;;;;;;;;;;5116355;28;20024;-77
2022/11/28 04:44:19;;;;;;;27.25;15.32;;;;;;;;;;5102077;28;20031;-78
2022/11/28 04:47:05;;;;;;;27.65;15.70;;;;;;;;;;5102606;28;20079;-76
2022/11/28 04:49:52;;;;;;;25.98;15.52;;;;;;;;;;5102962;28;20114;-76
2022/11/28 04:52:46;;;;;;;30.15;16.98;;;;;;;;;;5101076;28;20024;-76
2022/11/28 04:55:34;;;;;;;27.58;16.30;;;;;;;;;;5116647;28;20432;-76
2022/11/28 04:58:29;;;;;;;28.92;16.73;;;;;;;;;;5102325;28;20041;-76
2022/11/28 05:01:18;;;;;;;30.02;16.65;;;;;;;;;;5115515;28;20428;-76
2022/11/28 05:04:04;;;;;;;29.45;17.13;;;;;;;;;;5102569;28;20042;-76
2022/11/28 05:06:59;;;;;;;28.40;17.25;;;;;;;;;;5116000;28;20019;-76
2022/11/28 05:09:44;;;;;;;28.02;16.17;;;;;;;;;;5102154;28;20084;-76
2022/11/28 05:12:30;;;;;;;26.70;16.75;;;;;;;;;;5101823;28;20031;-77
2022/11/28 05:15:17;;;;;;;27.65;16.60;;;;;;;;;;5101169;28;20044;-75
2022/11/28 05:18:03;;;;;;;29.08;17.17;;;;;;;;;;5101896;28;20443;-75
2022/11/28 05:20:49;;;;;;;33.55;17.77;;;;;;;;;;5116381;28;20027;-76
2022/11/28 05:23:44;;;;;;;30.42;17.45;;;;;;;;;;5102088;28;20468;-75
2022/11/28 05:26:31;;;;;;;29.52;18.05;;;;;;;;;;5115249;28;20155;-76
2022/11/28 05:29:17;;;;;;;31.08;17.92;;;;;;;;;;5115925;28;20019;-75
2022/11/28 05:32:03;;;;;;;31.42;17.58;;;;;;;;;;5115798;28;20144;-78
2022/11/28 05:34:49;;;;;;;28.40;17.80;;;;;;;;;;5101846;28;20368;-76
2022/11/28 05:37:34;;;;;;;31.20;17.55;;;;;;;;;;5115126;28;20044;-76
2022/11/28 05:40:20;;;;;;;37.13;18.63;;;;;;;;;;5099895;28;20023;-76
2022/11/28 05:43:05;;;;;;;39.42;20.50;;;;;;;;;;5101341;28;20504;-76
2022/11/28 05:45:51;;;;;;;45.08;22.77;;;;;;;;;;5114735;28;20024;-76
2022/11/28 05:48:37;;;;;;;41.95;22.95;;;;;;;;;;5116101;28;20089;-76
2022/11/28 05:51:23;;;;;;;51.28;21.73;;;;;;;;;;5100848;28;20107;-76
2022/11/28 05:54:08;;;;;;;44.10;21.38;;;;;;;;;;5114856;28;20047;-73
2022/11/28 05:56:54;;;;;;;53.28;23.27;;;;;;;;;;5113004;28;20051;-74
2022/11/28 05:59:39;;;;;;;35.88;18.85;;;;;;;;;;5114466;28;20043;-70
2022/11/28 06:02:25;;;;;;;34.25;18.08;;;;;;;;;;5114237;28;20341;-72
2022/11/28 06:05:11;;;;;;;39.40;21.48;;;;;;;;;;5114236;28;20448;-71
2022/11/28 06:07:56;;;;;;;30.52;17.60;;;;;;;;;;5114596;28;20452;-73
2022/11/28 06:10:42;;;;;;;37.15;18.48;;;;;;;;;;5113970;28;20328;-76
2022/11/28 06:13:27;;;;;;;39.67;19.90;;;;;;;;;;5100327;28;20020;-74
2022/11/28 06:16:26;;;;;;;44.33;21.30;;;;;;;;;;5114279;28;20024;-73
2022/11/28 06:19:12;;;;;;;38.85;20.27;;;;;;;;;;5114244;28;20455;-75
2022/11/28 06:21:57;;;;;;;39.97;21.48;;;;;;;;;;5114280;28;20034;-74
2022/11/28 06:24:43;;;;;;;42.30;22.02;;;;;;;;;;5113492;28;20019;-73
2022/11/28 06:27:28;;;;;;;33.17;19.20;;;;;;;;;;5114630;28;20007;-74
2022/11/28 06:30:14;;;;;;;34.30;19.48;;;;;;;;;;5113978;28;20406;-73
2022/11/28 06:33:00;;;;;;;35.35;19.67;;;;;;;;;;5114539;28;20031;-75
2022/11/28 06:35:45;;;;;;;36.33;19.25;;;;;;;;;;5114577;28;20094;-74
2022/11/28 06:38:31;;;;;;;33.50;20.17;;;;;;;;;;5114588;28;20019;-74
2022/11/28 06:41:17;;;;;;;38.35;20.88;;;;;;;;;;5113864;28;20119;-74
2022/11/28 06:44:03;;;;;;;47.63;24.17;;;;;;;;;;5114270;28;20052;-72
2022/11/28 06:46:49;;;;;;;33.33;17.88;;;;;;;;;;5098590;28;20035;-74
2022/11/28 06:49:35;;;;;;;33.17;18.00;;;;;;;;;;5114009;28;20103;-74
2022/11/28 06:52:21;;;;;;;31.73;19.02;;;;;;;;;;5117526;28;20028;-73
2022/11/28 06:55:07;;;;;;;32.33;17.85;;;;;;;;;;5103400;28;20012;-73
2022/11/28 06:57:52;;;;;;;32.65;18.55;;;;;;;;;;5118178;28;20020;-73
2022/11/28 07:00:38;;;;;;;31.27;17.92;;;;;;;;;;5103348;28;20432;-73
2022/11/28 07:03:23;;;;;;;32.25;18.05;;;;;;;;;;5118892;28;20110;-74
2022/11/28 07:06:09;;;;;;;31.98;17.83;;;;;;;;;;5121571;28;20019;-74
2022/11/28 07:08:55;;;;;;;31.45;18.92;;;;;;;;;;5102677;28;20024;-73
2022/11/28 07:11:41;;;;;;;31.67;18.52;;;;;;;;;;5118161;28;20020;-74
2022/11/28 07:14:27;;;;;;;33.22;18.77;;;;;;;;;;5118246;28;20027;-73
2022/11/28 07:17:12;;;;;;;36.10;18.23;;;;;;;;;;5117562;28;20024;-73
2022/11/28 07:19:58;;;;;;;35.13;18.33;;;;;;;;;;5116674;28;20161;-73
2022/11/28 07:22:45;;;;;;;35.83;17.73;;;;;;;;;;5089394;28;20048;-72
2022/11/28 07:25:31;;;;;;;36.15;18.40;;;;;;;;;;5118020;28;20368;-73
2022/11/28 07:28:16;;;;;;;32.97;18.83;;;;;;;;;;5116907;28;20038;-74
2022/11/28 07:31:09;;;;;;;39.00;18.67;;;;;;;;;;5116918;28;20023;-71
2022/11/28 07:33:55;;;;;;;31.63;18.75;;;;;;;;;;5117496;28;20023;-71
2022/11/28 07:36:40;;;;;;;31.05;17.15;;;;;;;;;;5116222;28;20043;-72
2022/11/28 07:39:26;;;;;;;34.75;19.23;;;;;;;;;;5117563;28;20109;-74
2022/11/28 07:42:12;;;;;;;36.60;19.50;;;;;;;;;;5117273;28;20019;-74
2022/11/28 07:44:57;;;;;;;37.47;19.55;;;;;;;;;;5117675;28;20356;-74
2022/11/28 07:47:43;;;;;;;49.00;19.70;;;;;;;;;;5103577;28;20177;-73
2022/11/28 07:50:28;;;;;;;41.08;19.13;;;;;;;;;;5117136;28;20020;-76
2022/11/28 07:53:14;;;;;;;33.97;17.80;;;;;;;;;;5116641;28;20019;-74
2022/11/28 07:56:02;;;;;;;35.55;18.52;;;;;;;;;;5102295;28;20333;-72
2022/11/28 07:58:48;;;;;;;31.98;18.45;;;;;;;;;;5117547;28;20024;-72
2022/11/28 08:01:34;;;;;;;36.72;20.00;;;;;;;;;;5116749;28;20015;-72
2022/11/28 08:04:20;;;;;;;43.78;20.45;;;;;;;;;;5116677;28;20053;-73
2022/11/28 08:07:05;;;;;;;36.72;18.42;;;;;;;;;;5101111;28;20039;-73
2022/11/28 08:09:51;;;;;;;38.88;18.33;;;;;;;;;;5116674;28;20024;-73
2022/11/28 08:12:37;;;;;;;38.28;20.52;;;;;;;;;;5115949;28;20023;-73
2022/11/28 08:15:22;;;;;;;36.33;20.85;;;;;;;;;;5103041;28;20434;-73
2022/11/28 08:18:08;;;;;;;39.35;20.70;;;;;;;;;;5116446;28;20022;-74
2022/11/28 08:21:01;;;;;;;36.33;19.45;;;;;;;;;;5117525;28;20024;-74
2022/11/28 08:23:47;;;;;;;46.78;21.05;;;;;;;;;;5102624;28;20102;-74
2022/11/28 08:26:34;;;;;;;36.80;20.40;;;;;;;;;;5102349;28;20028;-73
2022/11/28 08:29:19;;;;;;;38.97;19.75;;;;;;;;;;5103378;28;20040;-74
2022/11/28 08:32:05;;;;;;;40.20;20.60;;;;;;;;;;5116887;28;20028;-75
2022/11/28 08:34:51;;;;;;;44.95;21.33;;;;;;;;;;5117587;28;20020;-73
2022/11/28 08:37:36;;;;;;;40.58;20.23;;;;;;;;;;5115671;28;20090;-74
2022/11/28 08:40:22;;;;;;;43.88;21.80;;;;;;;;;;5102074;28;20025;-73
2022/11/28 08:43:08;;;;;;;48.90;24.30;;;;;;;;;;5102079;28;20023;-73
2022/11/28 08:45:53;;;;;;;50.80;24.25;;;;;;;;;;5116740;28;20064;-74
2022/11/28 08:48:40;;;;;;;52.55;24.23;;;;;;;;;;5115032;28;20027;-74
2022/11/28 08:51:25;;;;;;;52.50;25.02;;;;;;;;;;5101103;28;20042;-74
2022/11/28 08:54:11;;;;;;;47.88;24.65;;;;;;;;;;5116883;28;20023;-74
2022/11/28 08:56:57;;;;;;;51.35;26.65;;;;;;;;;;5102302;28;20026;-73
2022/11/28 08:59:43;;;;;;;54.65;26.63;;;;;;;;;;5101231;28;20035;-73
2022/11/28 09:02:28;;;;;;;57.90;25.38;;;;;;;;;;5102612;28;20106;-74
2022/11/28 09:05:14;;;;;;;120.03;59.85;;;;;;;;;;5101912;28;20024;-73
2022/11/28 09:08:00;;;;;;;56.20;26.50;;;;;;;;;;5101830;28;20019;-75
2022/11/28 09:10:46;;;;;;;48.10;24.55;;;;;;;;;;5102547;28;20035;-73
2022/11/28 09:13:31;;;;;;;46.08;24.27;;;;;;;;;;5115908;28;20019;-74
2022/11/28 09:16:17;;;;;;;49.05;25.50;;;;;;;;;;5115966;28;20031;-73
2022/11/28 09:19:03;;;;;;;54.78;24.25;;;;;;;;;;5116740;27;20476;-74
2022/11/28 09:21:48;;;;;;;46.78;24.52;;;;;;;;;;5101117;28;20015;-74
2022/11/28 09:24:34;;;;;;;51.67;24.17;;;;;;;;;;5096017;28;20363;-74
2022/11/28 09:27:19;;;;;;;44.58;22.58;;;;;;;;;;5115113;28;20352;-73
2022/11/28 09:30:06;;;;;;;44.03;22.10;;;;;;;;;;5114570;28;20025;-73
2022/11/28 09:32:52;;;;;;;42.42;22.10;;;;;;;;;;5101715;28;20020;-73
2022/11/28 09:35:38;;;;;;;42.05;21.48;;;;;;;;;;5100180;28;20026;-74
2022/11/28 09:38:24;;;;;;;41.97;21.63;;;;;;;;;;5101444;28;20135;-73
2022/11/28 09:41:32;;;;;;;48.63;23.67;;;;;;;;;;5115552;28;20011;-73
2022/11/28 09:44:36;;;;;;;39.30;22.05;;;;;;;;;;5114467;28;20123;-73
2022/11/28 09:47:24;;;;;;;39.60;21.30;;;;;;;;;;5101056;28;20367;-73
2022/11/28 09:50:14;;;;;;;42.70;21.08;;;;;;;;;;5115738;28;20414;-73
2022/11/28 09:53:18;;;;;;;50.00;25.08;;;;;;;;;;5100160;28;20027;-72
2022/11/28 09:56:15;;;;;;;50.88;21.58;;;;;;;;;;5115122;28;20016;-74
2022/11/28 09:59:04;;;;;;;46.10;22.55;;;;;;;;;;5115054;28;20024;-73
2022/11/28 10:02:01;;;;;;;46.50;25.45;;;;;;;;;;5115241;28;20012;-73
2022/11/28 10:04:58;;;;;;;48.45;25.17;;;;;;;;;;5100308;28;20058;-73
2022/11/28 10:07:52;;;;;;;60.45;28.23;;;;;;;;;;5117303;28;20023;-72
2022/11/28 10:10:56;;;;;;;47.42;22.73;;;;;;;;;;5103763;28;20076;-76
2022/11/28 10:14:00;;;;;;;48.63;24.75;;;;;;;;;;5124152;28;20019;-72
2022/11/28 10:17:01;;;;;;;44.90;22.10;;;;;;;;;;5127138;28;20027;-72
2022/11/28 10:19:53;;;;;;;44.20;23.38;;;;;;;;;;5117370;28;20019;-74
2022/11/28 10:22:49;;;;;;;42.25;20.98;;;;;;;;;;5115302;28;20024;-74
2022/11/28 10:25:40;;;;;;;45.75;24.40;;;;;;;;;;5099834;28;20019;-72
2022/11/28 10:28:30;;;;;;;42.00;23.50;;;;;;;;;;5100513;28;20019;-73
2022/11/28 10:31:29;;;;;;;43.13;23.55;;;;;;;;;;5100693;28;20047;-73
2022/11/28 10:34:39;;;;;;;45.35;22.90;;;;;;;;;;5114493;28;20027;-73
2022/11/28 10:37:27;;;;;;;41.90;20.23;;;;;;;;;;5099749;28;20059;-73
2022/11/28 10:40:21;;;;;;;35.63;19.80;;;;;;;;;;5100768;28;20020;-74
2022/11/28 10:43:16;;;;;;;39.42;18.80;;;;;;;;;;5100885;28;20020;-73
2022/11/28 10:46:25;;;;;;;36.00;20.52;;;;;;;;;;5114515;28;20320;-73
2022/11/28 10:49:29;;;;;;;41.65;19.40;;;;;;;;;;5099176;28;20024;-72
2022/11/28 10:52:29;;;;;;;40.30;20.33;;;;;;;;;;5100498;28;20023;-73
2022/11/28 10:55:24;;;;;;;40.25;20.67;;;;;;;;;;5114350;28;20032;-73
2022/11/28 10:58:09;;;;;;;37.92;20.23;;;;;;;;;;5100257;28;20092;-76
2022/11/28 11:00:56;;;;;;;35.22;19.17;;;;;;;;;;5113930;28;20341;-73
2022/11/28 11:03:42;;;;;;;47.97;24.45;;;;;;;;;;5100062;28;20475;-75
2022/11/28 11:06:28;;;;;;;37.58;17.80;;;;;;;;;;5101497;28;20363;-74
2022/11/28 11:09:13;;;;;;;33.20;17.55;;;;;;;;;;5099816;28;20019;-73
2022/11/28 11:11:59;;;;;;;36.78;20.85;;;;;;;;;;5100080;28;20027;-73
2022/11/28 11:14:45;;;;;;;35.90;19.23;;;;;;;;;;5115213;28;20023;-73
2022/11/28 11:17:32;;;;;;;40.65;22.02;;;;;;;;;;5113982;28;20016;-73
2022/11/28 11:20:26;;;;;;;39.13;20.08;;;;;;;;;;5114153;28;20474;-73
2022/11/28 11:23:21;;;;;;;49.35;21.90;;;;;;;;;;5113716;28;20489;-73
2022/11/28 11:26:09;;;;;;;41.45;21.85;;;;;;;;;;5114064;28;20157;-73
2022/11/28 11:28:56;;;;;;;38.75;21.00;;;;;;;;;;5098876;28;20035;-73
2022/11/28 11:31:42;;;;;;;35.28;18.70;;;;;;;;;;5100557;28;20020;-73
2022/11/28 11:34:31;;;;;;;39.35;20.05;;;;;;;;;;5113179;28;20436;-74
2022/11/28 11:37:36;;;;;;;31.08;16.90;;;;;;;;;;5114517;28;20460;-73
2022/11/28 11:40:26;;;;;;;28.90;15.90;;;;;;;;;;5103439;28;20449;-72
2022/11/28 11:43:31;;;;;;;29.17;16.90;;;;;;;;;;5102952;28;20023;-74
2022/11/28 11:46:17;;;;;;;32.22;17.33;;;;;;;;;;5116739;28;20023;-74
2022/11/28 11:49:02;;;;;;;29.77;17.10;;;;;;;;;;5116781;28;20034;-74
2022/11/28 11:51:54;;;;;;;34.08;17.50;;;;;;;;;;5102759;28;20059;-74
2022/11/28 11:54:46;;;;;;;47.60;26.23;;;;;;;;;;5117114;28;20465;-73
2022/11/28 11:57:34;;;;;;;53.95;31.13;;;;;;;;;;5117394;28;20016;-73
2022/11/28 12:00:27;;;;;;;46.00;21.85;;;;;;;;;;5117066;28;20106;-73
2022/11/28 12:03:25;;;;;;;39.22;19.58;;;;;;;;;;5116303;28;20016;-73
2022/11/28 12:06:26;;;;;;;36.80;20.48;;;;;;;;;;5116025;28;20011;-74
2022/11/28 12:09:24;;;;;;;39.10;20.42;;;;;;;;;;5103128;28;20034;-73
2022/11/28 12:12:14;;;;;;;38.40;20.55;;;;;;;;;;5116420;28;20034;-73
2022/11/28 12:15:00;;;;;;;38.15;20.52;;;;;;;;;;5115446;28;20080;-73
2022/11/28 12:17:59;;;;;;;35.97;19.98;;;;;;;;;;5116636;28;20438;-74
2022/11/28 12:20:50;;;;;;;48.28;26.50;;;;;;;;;;5102630;28;20045;-73
2022/11/28 12:23:53;;;;;;;44.17;22.88;;;;;;;;;;5116536;28;20051;-73
2022/11/28 12:26:42;;;;;;;36.80;19.67;;;;;;;;;;5116705;28;20025;-73
2022/11/28 12:29:39;;;;;;;35.13;17.92;;;;;;;;;;5116858;28;20023;-73
2022/11/28 12:32:43;;;;;;;39.83;18.70;;;;;;;;;;5116877;28;20454;-73
2022/11/28 12:35:31;;;;;;;32.67;18.92;;;;;;;;;;5116365;28;20043;-72
2022/11/28 12:38:17;;;;;;;37.95;20.65;;;;;;;;;;5116068;28;20127;-72
2022/11/28 12:41:08;;;;;;;46.22;23.00;;;;;;;;;;5116487;28;20471;-73
2022/11/28 12:44:12;;;;;;;37.03;19.35;;;;;;;;;;5102190;28;20047;-72
2022/11/28 12:47:17;;;;;;;36.80;19.77;;;;;;;;;;5116147;28;20081;-72
2022/11/28 12:50:21;;;;;;;33.13;18.00;;;;;;;;;;5116419;28;20020;-72
2022/11/28 12:53:25;;;;;;;39.53;19.35;;;;;;;;;;5116689;28;20035;-73
2022/11/28 12:56:13;;;;;;;39.35;23.52;;;;;;;;;;5115677;28;20531;-72
2022/11/28 12:59:06;;;;;;;66.47;36.40;;;;;;;;;;5115972;28;20118;-73
2022/11/28 13:02:10;;;;;;;41.42;22.33;;;;;;;;;;5101753;28;20016;-72
2022/11/28 13:05:05;;;;;;;116.80;43.40;;;;;;;;;;5101804;28;20020;-74
2022/11/28 13:08:05;;;;;;;51.38;22.98;;;;;;;;;;5115280;28;20015;-74
2022/11/28 13:11:08;;;;;;;44.35;21.52;;;;;;;;;;5115538;28;20054;-72
2022/11/28 13:14:12;;;;;;;44.88;21.25;;;;;;;;;;5116305;28;20016;-71
2022/11/28 13:17:05;;;;;;;52.33;20.27;;;;;;;;;;5114944;28;20114;-74
2022/11/28 13:20:06;;;;;;;47.75;19.80;;;;;;;;;;5101352;28;20020;-73
2022/11/28 13:23:01;;;;;;;39.60;20.13;;;;;;;;;;5101512;28;20019;-71
2022/11/28 13:25:50;;;;;;;38.67;19.00;;;;;;;;;;5115969;28;20028;-74
2022/11/28 13:28:36;;;;;;;48.65;26.23;;;;;;;;;;5105052;28;20161;-72
2022/11/28 13:31:28;;;;;;;38.97;19.75;;;;;;;;;;5116562;28;20318;-73
2022/11/28 13:34:15;;;;;;;45.45;23.08;;;;;;;;;;5114204;28;20016;-72
2022/11/28 13:37:09;;;;;;;41.40;20.40;;;;;;;;;;5115145;28;20039;-73
2022/11/28 13:40:26;;;;;;;38.45;20.95;;;;;;;;;;5114813;28;20110;-72
2022/11/28 13:43:12;;;;;;;37.20;20.33;;;;;;;;;;5074552;28;20054;-73
2022/11/28 13:45:58;;;;;;;40.78;20.75;;;;;;;;;;5101017;28;20031;-72
2022/11/28 13:48:43;;;;;;;40.47;21.30;;;;;;;;;;5099624;28;20501;-72
2022/11/28 13:51:30;;;;;;;38.70;20.83;;;;;;;;;;5115591;28;20023;-71
2022/11/28 13:54:21;;;;;;;31.95;18.88;;;;;;;;;;5115590;28;20114;-72
2022/11/28 13:57:06;;;;;;;40.95;19.65;;;;;;;;;;5100786;28;20072;-71
2022/11/28 13:59:55;;;;;;;39.00;19.48;;;;;;;;;;5114454;28;20019;-73
2022/11/28 14:02:43;;;;;;;33.08;18.35;;;;;;;;;;5114466;28;20097;-71
2022/11/28 14:05:38;;;;;;;33.05;18.95;;;;;;;;;;5115619;28;20024;-72
2022/11/28 14:08:26;;;;;;;36.92;18.55;;;;;;;;;;5115035;28;20016;-73
2022/11/28 14:11:18;;;;;;;38.50;19.98;;;;;;;;;;5115904;28;20055;-72
2022/11/28 14:14:23;;;;;;;41.22;23.65;;;;;;;;;;5114691;28;20023;-72
2022/11/28 14:17:25;;;;;;;35.53;18.63;;;;;;;;;;5115624;28;20153;-72
2022/11/28 14:20:29;;;;;;;33.42;19.83;;;;;;;;;;5114840;28;20405;-72
2022/11/28 14:23:41;;;;;;;30.98;18.88;;;;;;;;;;5099533;28;20099;-73
2022/11/28 14:26:34;;;;;;;37.53;18.38;;;;;;;;;;5075851;28;20035;-71
2022/11/28 14:29:23;;;;;;;29.70;16.73;;;;;;;;;;5114464;28;20082;-71
2022/11/28 14:32:22;;;;;;;35.13;15.90;;;;;;;;;;5113208;28;20389;-72
2022/11/28 14:35:15;;;;;;;31.55;16.48;;;;;;;;;;5100061;28;20015;-73
2022/11/28 14:38:01;;;;;;;33.88;17.17;;;;;;;;;;5113211;28;20055;-73
2022/11/28 14:40:49;;;;;;;31.35;18.00;;;;;;;;;;5113984;28;20024;-73
2022/11/28 14:43:36;;;;;;;26.02;16.65;;;;;;;;;;5114513;28;20019;-73
2022/11/28 14:46:24;;;;;;;39.35;24.02;;;;;;;;;;5114649;28;20115;-74
2022/11/28 14:49:15;;;;;;;25.33;15.13;;;;;;;;;;5114521;28;20020;-73
2022/11/28 14:52:05;;;;;;;26.70;14.88;;;;;;;;;;5115406;28;20023;-73
2022/11/28 14:54:51;;;;;;;32.78;16.33;;;;;;;;;;5100276;28;20031;-73
2022/11/28 14:57:37;;;;;;;35.95;16.95;;;;;;;;;;5099402;28;20020;-72
2022/11/28 15:00:27;;;;;;;35.70;21.15;;;;;;;;;;5106408;28;20073;-72
2022/11/28 15:03:29;;;;;;;36.33;16.83;;;;;;;;;;5114871;28;20106;-73
2022/11/28 15:06:18;;;;;;;39.15;17.45;;;;;;;;;;5100076;28;20371;-73
2022/11/28 15:09:12;;;;;;;30.20;17.27;;;;;;;;;;5113691;28;20027;-72
2022/11/28 15:12:10;;;;;;;30.88;16.23;;;;;;;;;;5115291;28;20016;-72
2022/11/28 15:14:57;;;;;;;30.20;18.45;;;;;;;;;;5118765;28;20173;-72
2022/11/28 15:17:45;;;;;;;37.25;16.35;;;;;;;;;;5105928;28;20414;-72
2022/11/28 15:20:34;;;;;;;29.63;16.08;;;;;;;;;;5127285;28;20031;-72
2022/11/28 15:23:24;;;;;;;25.65;16.08;;;;;;;;;;5104567;28;20033;-72
2022/11/28 15:26:20;;;;;;;33.22;15.52;;;;;;;;;;5119592;28;20386;-72
2022/11/28 15:29:09;;;;;;;25.67;14.68;;;;;;;;;;5122492;28;20028;-72
2022/11/28 15:31:56;;;;;;;27.85;14.93;;;;;;;;;;5125526;28;20165;-72
2022/11/28 15:34:41;;;;;;;27.67;14.95;;;;;;;;;;5127370;28;20023;-73
2022/11/28 15:37:31;;;;;;;26.15;14.82;;;;;;;;;;5108833;28;20042;-71
2022/11/28 15:40:28;;;;;;;27.95;15.25;;;;;;;;;;5121683;27;20462;-72
2022/11/28 15:43:14;;;;;;;30.15;15.40;;;;;;;;;;5123345;28;20019;-71
2022/11/28 15:46:00;;;;;;;29.67;15.25;;;;;;;;;;5125587;28;20020;-72
2022/11/28 15:48:51;;;;;;;27.35;15.88;;;;;;;;;;5118881;28;20321;-72
2022/11/28 15:51:36;;;;;;;36.03;19.75;;;;;;;;;;5118993;28;20107;-71
2022/11/28 15:54:51;;;;;;;30.15;16.58;;;;;;;;;;5118297;28;20023;-75
2022/11/28 15:57:37;;;;;;;31.83;16.70;;;;;;;;;;5121955;28;20034;-71
2022/11/28 16:00:24;;;;;;;29.92;16.25;;;;;;;;;;5129355;28;20029;-73
2022/11/28 16:03:17;;;;;;;31.17;16.13;;;;;;;;;;5130991;28;20048;-71
2022/11/28 16:06:04;;;;;;;30.98;16.00;;;;;;;;;;5111739;28;20020;-72
2022/11/28 16:08:50;;;;;;;32.40;16.65;;;;;;;;;;5124352;28;20115;-71
2022/11/28 16:11:35;;;;;;;30.42;17.70;;;;;;;;;;5110290;28;20016;-72
2022/11/28 16:14:28;;;;;;;29.33;16.48;;;;;;;;;;5123715;28;20436;-71
2022/11/28 16:17:19;;;;;;;32.75;16.90;;;;;;;;;;5108767;28;20057;-71
2022/11/28 16:20:05;;;;;;;31.83;16.83;;;;;;;;;;5106525;28;20020;-72
2022/11/28 16:22:55;;;;;;;29.65;16.95;;;;;;;;;;5119939;28;20113;-71
2022/11/28 16:25:41;;;;;;;28.88;16.02;;;;;;;;;;5118922;28;20034;-72
2022/11/28 16:28:37;;;;;;;34.08;18.23;;;;;;;;;;5116445;28;20034;-71